Enter the Airport ICAO Code

Search by Airport or City

Current Weather

SUMU | Carrasco Gral. Cesáreo L. Berisso International Airport

Montevideo, Uruguay

Last Update 22 Minutes Ago

Mostly Cloudy Sky

Temperature of 07 ºC

Moderate Winds from West

Temperature

07 ºC

Dew Point Temperature

02 ºC Below Zero

Relative Humidity

52.71 %

Wind Direction

West (250º, Without Significant Variations)

Wind Velocity

22 km/h (12 kt)

Gusts

None

Visibility

Greater than 10 Kilometers

Sea Level Pressure

1016 hPa (Hectopascals)

Layers of Clouds

5% to 30% of Sky Covered from 701 mts (2300 ft) Above Ground Level.

60% to 90% of Sky Covered from 3048 mts (10000 ft) Above Ground Level.

METAR SUMU 131100Z 25012KT 9999 FEW023 BKN100 07/M02 Q1016 NOSIG

Weather Forecast

SUMU | Carrasco Gral. Cesáreo L. Berisso International Airport

Montevideo, Uruguay

Forecast valid for the next 19 Hours

From now on it is expected:

Clear Sky

Moderate Winds from West

Maximum Temperature

09 ºC in 7 Hours

Minimum Temperature

03 ºC in -1 Hours

TAF SUMU 130530Z 1306/1406 27015KT CAVOK TX09/1318Z TN03/1310Z